sensor_id;sensor_type;location;lat;lon;timestamp;temperature;humidity
12060;DHT22;6091;51.432;6.880;2023-02-11T00:01:27;22.30;32.40
12060;DHT22;6091;51.432;6.880;2023-02-11T00:03:59;21.50;31.90
12060;DHT22;6091;51.432;6.880;2023-02-11T00:06:28;21.50;31.80
12060;DHT22;6091;51.432;6.880;2023-02-11T00:08:56;21.50;31.80
12060;DHT22;6091;51.432;6.880;2023-02-11T00:11:24;21.50;31.90
12060;DHT22;6091;51.432;6.880;2023-02-11T00:13:57;21.50;31.90
12060;DHT22;6091;51.432;6.880;2023-02-11T00:16:25;21.50;31.90
12060;DHT22;6091;51.432;6.880;2023-02-11T00:18:52;21.50;31.90
12060;DHT22;6091;51.432;6.880;2023-02-11T00:21:22;21.50;31.90
12060;DHT22;6091;51.432;6.880;2023-02-11T00:23:51;21.50;31.90
12060;DHT22;6091;51.432;6.880;2023-02-11T00:26:24;21.50;31.90
12060;DHT22;6091;51.432;6.880;2023-02-11T00:28:53;21.40;31.90
12060;DHT22;6091;51.432;6.880;2023-02-11T00:31:22;21.40;31.80
12060;DHT22;6091;51.432;6.880;2023-02-11T00:33:50;21.40;31.90
12060;DHT22;6091;51.432;6.880;2023-02-11T00:36:21;21.40;31.80
12060;DHT22;6091;51.432;6.880;2023-02-11T00:38:52;21.40;31.90
12060;DHT22;6091;51.432;6.880;2023-02-11T00:41:20;21.40;31.90
12060;DHT22;6091;51.432;6.880;2023-02-11T00:43:48;21.40;31.90
12060;DHT22;6091;51.432;6.880;2023-02-11T00:46:16;21.40;31.90
12060;DHT22;6091;51.432;6.880;2023-02-11T00:48:43;21.40;31.90
12060;DHT22;6091;51.432;6.880;2023-02-11T00:51:11;21.40;31.90
12060;DHT22;6091;51.432;6.880;2023-02-11T00:53:38;21.40;32.00
12060;DHT22;6091;51.432;6.880;2023-02-11T00:56:05;21.40;31.90
12060;DHT22;6091;51.432;6.880;2023-02-11T00:58:34;21.30;31.90
12060;DHT22;6091;51.432;6.880;2023-02-11T01:01:01;21.30;31.90
12060;DHT22;6091;51.432;6.880;2023-02-11T01:03:28;21.30;31.90
12060;DHT22;6091;51.432;6.880;2023-02-11T01:05:55;21.30;31.90
12060;DHT22;6091;51.432;6.880;2023-02-11T01:08:22;21.30;31.90
12060;DHT22;6091;51.432;6.880;2023-02-11T01:10:58;21.30;32.00
12060;DHT22;6091;51.432;6.880;2023-02-11T01:13:32;21.30;32.00
12060;DHT22;6091;51.432;6.880;2023-02-11T01:16:02;21.30;32.00
12060;DHT22;6091;51.432;6.880;2023-02-11T01:18:29;21.30;32.00
12060;DHT22;6091;51.432;6.880;2023-02-11T01:20:56;21.30;32.00
12060;DHT22;6091;51.432;6.880;2023-02-11T01:23:23;21.30;32.00
12060;DHT22;6091;51.432;6.880;2023-02-11T01:25:51;21.30;32.00
12060;DHT22;6091;51.432;6.880;2023-02-11T01:28:20;21.30;32.00
12060;DHT22;6091;51.432;6.880;2023-02-11T01:30:49;21.30;32.00
12060;DHT22;6091;51.432;6.880;2023-02-11T01:33:17;21.30;32.00
12060;DHT22;6091;51.432;6.880;2023-02-11T01:35:44;21.20;32.00
12060;DHT22;6091;51.432;6.880;2023-02-11T01:38:20;21.20;32.00
12060;DHT22;6091;51.432;6.880;2023-02-11T01:40:51;21.20;32.10
12060;DHT22;6091;51.432;6.880;2023-02-11T01:43:21;21.20;32.00
12060;DHT22;6091;51.432;6.880;2023-02-11T01:45:56;21.20;32.10
12060;DHT22;6091;51.432;6.880;2023-02-11T01:48:33;21.20;32.10
12060;DHT22;6091;51.432;6.880;2023-02-11T01:51:10;21.20;32.10
12060;DHT22;6091;51.432;6.880;2023-02-11T01:53:41;21.20;32.10
12060;DHT22;6091;51.432;6.880;2023-02-11T01:56:29;21.20;32.00
12060;DHT22;6091;51.432;6.880;2023-02-11T01:59:33;21.20;32.00
12060;DHT22;6091;51.432;6.880;2023-02-11T02:02:10;21.20;32.20
12060;DHT22;6091;51.432;6.880;2023-02-11T02:04:45;21.20;32.00
12060;DHT22;6091;51.432;6.880;2023-02-11T02:07:36;21.20;32.10
12060;DHT22;6091;51.432;6.880;2023-02-11T02:10:14;21.20;32.10
12060;DHT22;6091;51.432;6.880;2023-02-11T02:12:44;21.20;32.10
12060;DHT22;6091;51.432;6.880;2023-02-11T02:18:01;21.20;32.20
12060;DHT22;6091;51.432;6.880;2023-02-11T02:32:26;21.10;32.00
12060;DHT22;6091;51.432;6.880;2023-02-11T02:35:09;21.10;32.20
12060;DHT22;6091;51.432;6.880;2023-02-11T02:37:48;21.10;32.00
12060;DHT22;6091;51.432;6.880;2023-02-11T02:40:24;21.10;32.10
12060;DHT22;6091;51.432;6.880;2023-02-11T02:42:55;21.10;32.10
12060;DHT22;6091;51.432;6.880;2023-02-11T02:45:24;21.10;32.10
12060;DHT22;6091;51.432;6.880;2023-02-11T02:47:51;21.00;32.10
12060;DHT22;6091;51.432;6.880;2023-02-11T02:50:23;21.00;32.10
12060;DHT22;6091;51.432;6.880;2023-02-11T02:53:20;21.10;32.20
12060;DHT22;6091;51.432;6.880;2023-02-11T03:01:41;21.00;32.10
12060;DHT22;6091;51.432;6.880;2023-02-11T03:10:29;21.00;32.20
12060;DHT22;6091;51.432;6.880;2023-02-11T03:12:58;21.00;32.20
12060;DHT22;6091;51.432;6.880;2023-02-11T03:15:31;21.00;32.10
12060;DHT22;6091;51.432;6.880;2023-02-11T03:18:04;21.00;32.20
12060;DHT22;6091;51.432;6.880;2023-02-11T03:20:36;21.00;32.20
12060;DHT22;6091;51.432;6.880;2023-02-11T03:25:58;21.00;32.30
12060;DHT22;6091;51.432;6.880;2023-02-11T03:28:54;20.90;32.20
12060;DHT22;6091;51.432;6.880;2023-02-11T03:34:35;20.90;32.20
12060;DHT22;6091;51.432;6.880;2023-02-11T03:37:42;21.00;32.40
12060;DHT22;6091;51.432;6.880;2023-02-11T03:40:16;20.90;32.30
12060;DHT22;6091;51.432;6.880;2023-02-11T03:43:12;20.90;32.20
12060;DHT22;6091;51.432;6.880;2023-02-11T03:45:44;21.00;32.40
12060;DHT22;6091;51.432;6.880;2023-02-11T03:48:21;20.90;32.20
12060;DHT22;6091;51.432;6.880;2023-02-11T03:50:53;20.90;32.20
12060;DHT22;6091;51.432;6.880;2023-02-11T03:53:22;20.90;32.20
12060;DHT22;6091;51.432;6.880;2023-02-11T03:55:50;20.90;32.20
12060;DHT22;6091;51.432;6.880;2023-02-11T03:58:19;20.90;32.30
12060;DHT22;6091;51.432;6.880;2023-02-11T04:00:47;20.90;32.30
12060;DHT22;6091;51.432;6.880;2023-02-11T04:03:15;20.90;32.30
12060;DHT22;6091;51.432;6.880;2023-02-11T04:05:42;20.90;32.30
12060;DHT22;6091;51.432;6.880;2023-02-11T04:08:09;20.90;32.30
12060;DHT22;6091;51.432;6.880;2023-02-11T04:10:36;20.80;32.30
12060;DHT22;6091;51.432;6.880;2023-02-11T04:13:03;20.80;32.30
12060;DHT22;6091;51.432;6.880;2023-02-11T04:15:30;20.80;32.30
12060;DHT22;6091;51.432;6.880;2023-02-11T04:17:57;20.80;32.30
12060;DHT22;6091;51.432;6.880;2023-02-11T04:20:24;20.80;32.30
12060;DHT22;6091;51.432;6.880;2023-02-11T04:22:51;20.80;32.30
12060;DHT22;6091;51.432;6.880;2023-02-11T04:25:18;20.80;32.40
12060;DHT22;6091;51.432;6.880;2023-02-11T04:27:45;20.80;32.30
12060;DHT22;6091;51.432;6.880;2023-02-11T04:30:12;20.80;32.30
12060;DHT22;6091;51.432;6.880;2023-02-11T04:32:39;20.80;32.40
12060;DHT22;6091;51.432;6.880;2023-02-11T04:35:06;20.80;32.40
12060;DHT22;6091;51.432;6.880;2023-02-11T04:37:34;20.80;32.40
12060;DHT22;6091;51.432;6.880;2023-02-11T04:40:01;20.80;32.40
12060;DHT22;6091;51.432;6.880;2023-02-11T04:42:28;20.70;32.60
12060;DHT22;6091;51.432;6.880;2023-02-11T04:44:55;20.80;32.40
12060;DHT22;6091;51.432;6.880;2023-02-11T04:47:22;20.80;32.40
12060;DHT22;6091;51.432;6.880;2023-02-11T04:49:49;20.80;32.40
12060;DHT22;6091;51.432;6.880;2023-02-11T04:52:16;20.70;32.30
12060;DHT22;6091;51.432;6.880;2023-02-11T04:54:43;20.80;32.40
12060;DHT22;6091;51.432;6.880;2023-02-11T04:57:10;20.70;32.30
12060;DHT22;6091;51.432;6.880;2023-02-11T04:59:37;20.70;32.30
12060;DHT22;6091;51.432;6.880;2023-02-11T05:02:04;20.70;32.40
12060;DHT22;6091;51.432;6.880;2023-02-11T05:04:31;20.70;32.40
12060;DHT22;6091;51.432;6.880;2023-02-11T05:06:58;20.70;32.30
12060;DHT22;6091;51.432;6.880;2023-02-11T05:09:25;20.70;32.40
12060;DHT22;6091;51.432;6.880;2023-02-11T05:11:52;20.70;32.40
12060;DHT22;6091;51.432;6.880;2023-02-11T05:14:19;20.70;32.40
12060;DHT22;6091;51.432;6.880;2023-02-11T05:16:46;20.70;32.40
12060;DHT22;6091;51.432;6.880;2023-02-11T05:19:13;20.70;32.40
12060;DHT22;6091;51.432;6.880;2023-02-11T05:21:40;20.70;32.40
12060;DHT22;6091;51.432;6.880;2023-02-11T05:24:22;20.70;32.40
12060;DHT22;6091;51.432;6.880;2023-02-11T05:26:49;20.70;32.40
12060;DHT22;6091;51.432;6.880;2023-02-11T05:29:16;20.70;32.40
12060;DHT22;6091;51.432;6.880;2023-02-11T05:31:43;20.70;32.40
12060;DHT22;6091;51.432;6.880;2023-02-11T05:34:10;20.70;32.40
12060;DHT22;6091;51.432;6.880;2023-02-11T05:36:37;20.60;32.40
12060;DHT22;6091;51.432;6.880;2023-02-11T05:39:04;20.70;32.50
12060;DHT22;6091;51.432;6.880;2023-02-11T05:41:31;20.60;32.40
12060;DHT22;6091;51.432;6.880;2023-02-11T05:43:58;20.70;32.50
12060;DHT22;6091;51.432;6.880;2023-02-11T05:46:25;20.60;32.40
12060;DHT22;6091;51.432;6.880;2023-02-11T05:48:52;20.60;32.40
12060;DHT22;6091;51.432;6.880;2023-02-11T05:51:19;20.60;32.40
12060;DHT22;6091;51.432;6.880;2023-02-11T05:53:45;20.60;32.50
12060;DHT22;6091;51.432;6.880;2023-02-11T05:56:12;20.60;32.50
12060;DHT22;6091;51.432;6.880;2023-02-11T05:58:40;20.60;32.50
12060;DHT22;6091;51.432;6.880;2023-02-11T06:01:07;20.60;32.50
12060;DHT22;6091;51.432;6.880;2023-02-11T06:03:34;20.60;32.50
12060;DHT22;6091;51.432;6.880;2023-02-11T06:06:01;20.60;32.50
12060;DHT22;6091;51.432;6.880;2023-02-11T06:08:28;20.60;33.10
12060;DHT22;6091;51.432;6.880;2023-02-11T06:10:55;20.60;32.50
12060;DHT22;6091;51.432;6.880;2023-02-11T06:13:21;20.60;32.50
12060;DHT22;6091;51.432;6.880;2023-02-11T06:16:01;20.50;32.50
12060;DHT22;6091;51.432;6.880;2023-02-11T06:18:28;20.60;32.60
12060;DHT22;6091;51.432;6.880;2023-02-11T06:20:55;20.60;32.50
12060;DHT22;6091;51.432;6.880;2023-02-11T06:23:22;20.50;32.50
12060;DHT22;6091;51.432;6.880;2023-02-11T06:25:51;20.50;32.50
12060;DHT22;6091;51.432;6.880;2023-02-11T06:28:18;20.60;32.60
12060;DHT22;6091;51.432;6.880;2023-02-11T06:30:46;20.60;32.60
12060;DHT22;6091;51.432;6.880;2023-02-11T06:33:13;20.60;32.60
12060;DHT22;6091;51.432;6.880;2023-02-11T06:35:40;20.50;32.50
12060;DHT22;6091;51.432;6.880;2023-02-11T06:38:06;20.50;32.50
12060;DHT22;6091;51.432;6.880;2023-02-11T06:40:33;20.50;32.60
12060;DHT22;6091;51.432;6.880;2023-02-11T06:43:00;20.50;32.60
12060;DHT22;6091;51.432;6.880;2023-02-11T06:45:27;20.50;32.60
12060;DHT22;6091;51.432;6.880;2023-02-11T06:47:54;20.50;32.60
12060;DHT22;6091;51.432;6.880;2023-02-11T06:50:21;20.50;32.60
12060;DHT22;6091;51.432;6.880;2023-02-11T06:52:48;20.50;32.60
12060;DHT22;6091;51.432;6.880;2023-02-11T06:55:15;20.50;32.60
12060;DHT22;6091;51.432;6.880;2023-02-11T06:57:42;20.50;32.60
12060;DHT22;6091;51.432;6.880;2023-02-11T07:00:10;20.50;32.70
12060;DHT22;6091;51.432;6.880;2023-02-11T07:02:37;20.50;32.60
12060;DHT22;6091;51.432;6.880;2023-02-11T07:05:05;20.50;32.60
12060;DHT22;6091;51.432;6.880;2023-02-11T07:07:33;20.50;32.80
12060;DHT22;6091;51.432;6.880;2023-02-11T07:10:00;20.50;32.80
12060;DHT22;6091;51.432;6.880;2023-02-11T07:12:30;20.50;32.60
12060;DHT22;6091;51.432;6.880;2023-02-11T07:14:57;20.40;32.50
12060;DHT22;6091;51.432;6.880;2023-02-11T07:17:24;20.50;32.60
12060;DHT22;6091;51.432;6.880;2023-02-11T07:19:51;20.50;32.70
12060;DHT22;6091;51.432;6.880;2023-02-11T07:22:18;20.40;32.60
12060;DHT22;6091;51.432;6.880;2023-02-11T07:24:46;20.40;32.70
12060;DHT22;6091;51.432;6.880;2023-02-11T07:27:13;20.40;32.60
12060;DHT22;6091;51.432;6.880;2023-02-11T07:29:41;20.40;32.60
12060;DHT22;6091;51.432;6.880;2023-02-11T07:32:09;20.40;32.60
12060;DHT22;6091;51.432;6.880;2023-02-11T07:34:36;20.40;32.60
12060;DHT22;6091;51.432;6.880;2023-02-11T07:37:03;20.40;32.60
12060;DHT22;6091;51.432;6.880;2023-02-11T07:39:30;20.40;32.60
12060;DHT22;6091;51.432;6.880;2023-02-11T07:41:57;20.40;32.60
12060;DHT22;6091;51.432;6.880;2023-02-11T07:44:24;20.40;32.60
12060;DHT22;6091;51.432;6.880;2023-02-11T07:46:51;20.40;32.60
12060;DHT22;6091;51.432;6.880;2023-02-11T07:49:18;20.40;32.70
12060;DHT22;6091;51.432;6.880;2023-02-11T07:51:45;20.40;32.70
12060;DHT22;6091;51.432;6.880;2023-02-11T07:54:13;20.40;32.70
12060;DHT22;6091;51.432;6.880;2023-02-11T07:56:41;20.40;32.70
12060;DHT22;6091;51.432;6.880;2023-02-11T07:59:09;20.40;32.70
12060;DHT22;6091;51.432;6.880;2023-02-11T08:01:36;20.40;32.70
12060;DHT22;6091;51.432;6.880;2023-02-11T08:04:03;20.40;32.70
12060;DHT22;6091;51.432;6.880;2023-02-11T08:06:33;20.40;32.70
12060;DHT22;6091;51.432;6.880;2023-02-11T08:09:08;20.40;32.70
12060;DHT22;6091;51.432;6.880;2023-02-11T08:11:39;20.40;32.80
12060;DHT22;6091;51.432;6.880;2023-02-11T08:14:07;20.40;32.70
12060;DHT22;6091;51.432;6.880;2023-02-11T08:16:36;20.40;32.70
12060;DHT22;6091;51.432;6.880;2023-02-11T08:19:15;20.40;32.70
12060;DHT22;6091;51.432;6.880;2023-02-11T08:21:43;20.40;32.70
12060;DHT22;6091;51.432;6.880;2023-02-11T08:24:10;20.40;32.70
12060;DHT22;6091;51.432;6.880;2023-02-11T08:26:37;20.40;32.70
12060;DHT22;6091;51.432;6.880;2023-02-11T08:29:08;20.40;32.70
12060;DHT22;6091;51.432;6.880;2023-02-11T08:31:39;20.40;32.80
12060;DHT22;6091;51.432;6.880;2023-02-11T08:34:08;20.40;32.80
12060;DHT22;6091;51.432;6.880;2023-02-11T08:36:38;20.40;32.70
12060;DHT22;6091;51.432;6.880;2023-02-11T08:39:11;20.30;32.70
12060;DHT22;6091;51.432;6.880;2023-02-11T08:41:50;20.40;32.80
12060;DHT22;6091;51.432;6.880;2023-02-11T08:44:20;20.40;32.80
12060;DHT22;6091;51.432;6.880;2023-02-11T08:46:48;20.40;32.90
12060;DHT22;6091;51.432;6.880;2023-02-11T08:49:16;20.40;32.90
12060;DHT22;6091;51.432;6.880;2023-02-11T08:51:45;20.40;32.90
12060;DHT22;6091;51.432;6.880;2023-02-11T08:54:12;20.30;32.90
12060;DHT22;6091;51.432;6.880;2023-02-11T08:56:40;20.30;32.90
12060;DHT22;6091;51.432;6.880;2023-02-11T08:59:09;20.30;32.90
12060;DHT22;6091;51.432;6.880;2023-02-11T09:01:40;20.30;32.90
12060;DHT22;6091;51.432;6.880;2023-02-11T09:04:08;20.40;33.00
12060;DHT22;6091;51.432;6.880;2023-02-11T09:06:35;20.40;33.00
12060;DHT22;6091;51.432;6.880;2023-02-11T09:09:02;20.40;33.00
12060;DHT22;6091;51.432;6.880;2023-02-11T09:11:33;20.40;33.00
12060;DHT22;6091;51.432;6.880;2023-02-11T09:14:02;20.40;33.00
12060;DHT22;6091;51.432;6.880;2023-02-11T09:16:32;20.40;33.00
12060;DHT22;6091;51.432;6.880;2023-02-11T09:19:03;20.40;33.00
12060;DHT22;6091;51.432;6.880;2023-02-11T09:21:31;20.40;33.00
12060;DHT22;6091;51.432;6.880;2023-02-11T09:24:00;20.40;33.00
12060;DHT22;6091;51.432;6.880;2023-02-11T09:26:30;20.40;32.90
12060;DHT22;6091;51.432;6.880;2023-02-11T09:28:59;20.40;32.90
12060;DHT22;6091;51.432;6.880;2023-02-11T09:31:29;20.40;32.90
12060;DHT22;6091;51.432;6.880;2023-02-11T09:34:00;20.50;33.10
12060;DHT22;6091;51.432;6.880;2023-02-11T09:36:35;20.50;33.00
12060;DHT22;6091;51.432;6.880;2023-02-11T09:39:06;20.50;33.10
12060;DHT22;6091;51.432;6.880;2023-02-11T09:44:24;20.50;33.10
12060;DHT22;6091;51.432;6.880;2023-02-11T09:46:59;20.50;33.10
12060;DHT22;6091;51.432;6.880;2023-02-11T09:49:48;20.50;33.00
12060;DHT22;6091;51.432;6.880;2023-02-11T09:52:45;20.50;33.10
12060;DHT22;6091;51.432;6.880;2023-02-11T09:55:40;20.50;33.10
12060;DHT22;6091;51.432;6.880;2023-02-11T09:58:20;20.60;33.10
12060;DHT22;6091;51.432;6.880;2023-02-11T10:07:06;20.60;33.10
12060;DHT22;6091;51.432;6.880;2023-02-11T10:15:33;20.60;33.10
12060;DHT22;6091;51.432;6.880;2023-02-11T10:21:50;20.60;33.10
12060;DHT22;6091;51.432;6.880;2023-02-11T10:24:25;20.60;33.10
12060;DHT22;6091;51.432;6.880;2023-02-11T10:26:54;20.60;33.00
12060;DHT22;6091;51.432;6.880;2023-02-11T10:29:39;20.60;33.00
12060;DHT22;6091;51.432;6.880;2023-02-11T10:35:21;20.60;33.10
12060;DHT22;6091;51.432;6.880;2023-02-11T10:37:49;20.60;33.00
12060;DHT22;6091;51.432;6.880;2023-02-11T10:40:19;20.60;33.00
12060;DHT22;6091;51.432;6.880;2023-02-11T10:42:57;20.60;33.00
12060;DHT22;6091;51.432;6.880;2023-02-11T10:45:57;20.60;33.00
12060;DHT22;6091;51.432;6.880;2023-02-11T10:51:29;20.60;33.00
12060;DHT22;6091;51.432;6.880;2023-02-11T10:56:33;20.60;33.00
12060;DHT22;6091;51.432;6.880;2023-02-11T10:59:25;20.60;33.00
12060;DHT22;6091;51.432;6.880;2023-02-11T11:02:32;20.60;33.00
12060;DHT22;6091;51.432;6.880;2023-02-11T11:05:19;20.70;33.10
12060;DHT22;6091;51.432;6.880;2023-02-11T11:07:57;20.70;33.10
12060;DHT22;6091;51.432;6.880;2023-02-11T11:13:28;20.70;33.00
12060;DHT22;6091;51.432;6.880;2023-02-11T11:16:15;20.70;33.10
12060;DHT22;6091;51.432;6.880;2023-02-11T11:18:49;20.70;33.10
12060;DHT22;6091;51.432;6.880;2023-02-11T11:21:49;20.60;33.00
12060;DHT22;6091;51.432;6.880;2023-02-11T11:24:30;20.70;33.10
12060;DHT22;6091;51.432;6.880;2023-02-11T11:27:02;20.70;33.10
12060;DHT22;6091;51.432;6.880;2023-02-11T11:29:33;20.60;33.00
12060;DHT22;6091;51.432;6.880;2023-02-11T11:32:26;21.60;33.80
12060;DHT22;6091;51.432;6.880;2023-02-11T11:34:59;20.70;33.10
12060;DHT22;6091;51.432;6.880;2023-02-11T11:37:31;20.70;33.00
12060;DHT22;6091;51.432;6.880;2023-02-11T11:40:19;20.70;33.10
12060;DHT22;6091;51.432;6.880;2023-02-11T11:43:08;20.70;33.10
12060;DHT22;6091;51.432;6.880;2023-02-11T11:45:57;20.70;33.10
12060;DHT22;6091;51.432;6.880;2023-02-11T11:48:38;20.70;33.10
12060;DHT22;6091;51.432;6.880;2023-02-11T11:51:12;20.70;33.10
12060;DHT22;6091;51.432;6.880;2023-02-11T11:54:02;20.70;33.00
12060;DHT22;6091;51.432;6.880;2023-02-11T11:56:59;20.70;33.10
12060;DHT22;6091;51.432;6.880;2023-02-11T11:59:28;20.70;33.00
12060;DHT22;6091;51.432;6.880;2023-02-11T12:05:34;20.70;33.10
12060;DHT22;6091;51.432;6.880;2023-02-11T12:08:19;20.70;33.00
12060;DHT22;6091;51.432;6.880;2023-02-11T12:25:45;20.70;33.10
12060;DHT22;6091;51.432;6.880;2023-02-11T12:28:35;20.70;33.10
12060;DHT22;6091;51.432;6.880;2023-02-11T12:31:13;20.70;33.00
12060;DHT22;6091;51.432;6.880;2023-02-11T12:39:50;20.70;33.10
12060;DHT22;6091;51.432;6.880;2023-02-11T12:54:59;22.40;34.40
12060;DHT22;6091;51.432;6.880;2023-02-11T12:57:31;20.60;33.00
12060;DHT22;6091;51.432;6.880;2023-02-11T13:00:11;20.60;33.00
12060;DHT22;6091;51.432;6.880;2023-02-11T13:03:11;20.70;33.10
12060;DHT22;6091;51.432;6.880;2023-02-11T13:05:51;20.70;33.10
12060;DHT22;6091;51.432;6.880;2023-02-11T13:09:00;20.70;33.20
12060;DHT22;6091;51.432;6.880;2023-02-11T13:11:39;20.70;33.30
12060;DHT22;6091;51.432;6.880;2023-02-11T13:14:28;20.70;33.40
12060;DHT22;6091;51.432;6.880;2023-02-11T13:17:03;20.80;33.60
12060;DHT22;6091;51.432;6.880;2023-02-11T13:20:30;20.80;33.80
12060;DHT22;6091;51.432;6.880;2023-02-11T13:25:54;21.10;34.10
12060;DHT22;6091;51.432;6.880;2023-02-11T13:28:39;21.30;34.30
12060;DHT22;6091;51.432;6.880;2023-02-11T13:31:12;21.40;34.30
12060;DHT22;6091;51.432;6.880;2023-02-11T13:33:42;21.60;34.40
12060;DHT22;6091;51.432;6.880;2023-02-11T13:36:16;21.70;34.40
12060;DHT22;6091;51.432;6.880;2023-02-11T13:38:57;21.80;34.30
12060;DHT22;6091;51.432;6.880;2023-02-11T13:41:32;22.00;34.40
12060;DHT22;6091;51.432;6.880;2023-02-11T13:44:04;22.10;34.30
12060;DHT22;6091;51.432;6.880;2023-02-11T13:47:27;22.30;34.40
12060;DHT22;6091;51.432;6.880;2023-02-11T13:49:52;22.40;34.20
12060;DHT22;6091;51.432;6.880;2023-02-11T13:52:35;22.60;34.40
12060;DHT22;6091;51.432;6.880;2023-02-11T13:57:43;22.80;34.20
12060;DHT22;6091;51.432;6.880;2023-02-11T14:19:44;23.80;33.80
12060;DHT22;6091;51.432;6.880;2023-02-11T14:22:26;23.80;34.00
12060;DHT22;6091;51.432;6.880;2023-02-11T14:25:01;23.90;33.70
12060;DHT22;6091;51.432;6.880;2023-02-11T14:27:34;24.00;33.80
12060;DHT22;6091;51.432;6.880;2023-02-11T14:33:54;24.20;34.20
12060;DHT22;6091;51.432;6.880;2023-02-11T14:42:37;24.50;33.50
12060;DHT22;6091;51.432;6.880;2023-02-11T14:45:07;24.60;33.80
12060;DHT22;6091;51.432;6.880;2023-02-11T14:48:03;24.60;33.60
12060;DHT22;6091;51.432;6.880;2023-02-11T14:50:40;24.80;33.50
12060;DHT22;6091;51.432;6.880;2023-02-11T14:53:20;24.80;33.40
12060;DHT22;6091;51.432;6.880;2023-02-11T14:55:51;24.90;33.30
12060;DHT22;6091;51.432;6.880;2023-02-11T14:58:22;25.00;33.50
12060;DHT22;6091;51.432;6.880;2023-02-11T15:01:29;25.00;33.30
12060;DHT22;6091;51.432;6.880;2023-02-11T15:04:04;25.00;32.90
12060;DHT22;6091;51.432;6.880;2023-02-11T15:06:36;25.00;33.10
12060;DHT22;6091;51.432;6.880;2023-02-11T15:11:40;25.10;33.20
12060;DHT22;6091;51.432;6.880;2023-02-11T15:17:00;25.10;32.90
12060;DHT22;6091;51.432;6.880;2023-02-11T15:22:04;25.10;32.70
12060;DHT22;6091;51.432;6.880;2023-02-11T15:24:36;25.10;32.60
12060;DHT22;6091;51.432;6.880;2023-02-11T15:27:12;25.10;32.80
12060;DHT22;6091;51.432;6.880;2023-02-11T15:29:46;25.10;32.60
12060;DHT22;6091;51.432;6.880;2023-02-11T15:32:18;25.10;32.70
12060;DHT22;6091;51.432;6.880;2023-02-11T15:34:51;25.10;32.70
12060;DHT22;6091;51.432;6.880;2023-02-11T15:37:27;25.10;32.70
12060;DHT22;6091;51.432;6.880;2023-02-11T15:40:16;25.10;32.50
12060;DHT22;6091;51.432;6.880;2023-02-11T15:42:54;25.10;32.40
12060;DHT22;6091;51.432;6.880;2023-02-11T15:48:16;25.00;32.50
12060;DHT22;6091;51.432;6.880;2023-02-11T15:50:56;25.00;32.50
12060;DHT22;6091;51.432;6.880;2023-02-11T15:53:41;25.00;32.40
12060;DHT22;6091;51.432;6.880;2023-02-11T15:56:23;25.00;32.30
12060;DHT22;6091;51.432;6.880;2023-02-11T15:59:18;24.90;32.30
12060;DHT22;6091;51.432;6.880;2023-02-11T16:01:52;25.00;32.30
12060;DHT22;6091;51.432;6.880;2023-02-11T16:04:24;24.90;32.40
12060;DHT22;6091;51.432;6.880;2023-02-11T16:06:54;24.90;32.40
12060;DHT22;6091;51.432;6.880;2023-02-11T16:09:24;24.90;32.50
12060;DHT22;6091;51.432;6.880;2023-02-11T16:12:20;24.90;32.40
12060;DHT22;6091;51.432;6.880;2023-02-11T16:14:49;24.90;32.30
12060;DHT22;6091;51.432;6.880;2023-02-11T16:17:27;24.90;32.40
12060;DHT22;6091;51.432;6.880;2023-02-11T16:19:55;24.90;32.20
12060;DHT22;6091;51.432;6.880;2023-02-11T16:24:55;24.80;32.30
12060;DHT22;6091;51.432;6.880;2023-02-11T16:27:28;24.80;32.30
12060;DHT22;6091;51.432;6.880;2023-02-11T16:30:02;24.80;32.30
12060;DHT22;6091;51.432;6.880;2023-02-11T16:32:31;24.80;32.30
12060;DHT22;6091;51.432;6.880;2023-02-11T16:34:59;24.80;32.30
12060;DHT22;6091;51.432;6.880;2023-02-11T16:37:27;24.70;32.20
12060;DHT22;6091;51.432;6.880;2023-02-11T16:39:55;24.80;32.30
12060;DHT22;6091;51.432;6.880;2023-02-11T16:42:23;24.70;32.20
12060;DHT22;6091;51.432;6.880;2023-02-11T16:44:50;24.70;32.20
12060;DHT22;6091;51.432;6.880;2023-02-11T16:47:26;24.70;32.20
12060;DHT22;6091;51.432;6.880;2023-02-11T16:49:54;24.70;32.00
12060;DHT22;6091;51.432;6.880;2023-02-11T16:52:23;24.70;32.20
12060;DHT22;6091;51.432;6.880;2023-02-11T16:54:51;24.70;32.10
12060;DHT22;6091;51.432;6.880;2023-02-11T16:57:20;24.70;32.20
12060;DHT22;6091;51.432;6.880;2023-02-11T16:59:49;24.70;32.10
12060;DHT22;6091;51.432;6.880;2023-02-11T17:02:27;24.50;32.00
12060;DHT22;6091;51.432;6.880;2023-02-11T17:05:01;24.70;32.00
12060;DHT22;6091;51.432;6.880;2023-02-11T17:07:31;24.60;32.00
12060;DHT22;6091;51.432;6.880;2023-02-11T17:09:58;24.60;32.00
12060;DHT22;6091;51.432;6.880;2023-02-11T17:12:26;24.60;32.00
12060;DHT22;6091;51.432;6.880;2023-02-11T17:14:53;24.60;32.10
12060;DHT22;6091;51.432;6.880;2023-02-11T17:17:20;24.60;32.10
12060;DHT22;6091;51.432;6.880;2023-02-11T17:19:49;24.60;32.10
12060;DHT22;6091;51.432;6.880;2023-02-11T17:22:16;24.60;32.10
12060;DHT22;6091;51.432;6.880;2023-02-11T17:24:47;24.60;32.10
12060;DHT22;6091;51.432;6.880;2023-02-11T17:27:14;24.60;32.10
12060;DHT22;6091;51.432;6.880;2023-02-11T17:29:41;24.60;32.10
12060;DHT22;6091;51.432;6.880;2023-02-11T17:32:08;24.60;32.10
12060;DHT22;6091;51.432;6.880;2023-02-11T17:34:35;24.60;32.10
12060;DHT22;6091;51.432;6.880;2023-02-11T17:37:02;24.60;32.10
12060;DHT22;6091;51.432;6.880;2023-02-11T17:39:35;24.60;32.10
12060;DHT22;6091;51.432;6.880;2023-02-11T17:42:03;24.60;32.10
12060;DHT22;6091;51.432;6.880;2023-02-11T17:44:32;24.60;32.10
12060;DHT22;6091;51.432;6.880;2023-02-11T17:46:59;24.60;32.00
12060;DHT22;6091;51.432;6.880;2023-02-11T17:49:27;24.60;32.10
12060;DHT22;6091;51.432;6.880;2023-02-11T17:51:54;24.70;32.10
12060;DHT22;6091;51.432;6.880;2023-02-11T17:54:21;24.70;32.10
12060;DHT22;6091;51.432;6.880;2023-02-11T17:56:48;24.70;32.10
12060;DHT22;6091;51.432;6.880;2023-02-11T17:59:16;24.70;32.10
12060;DHT22;6091;51.432;6.880;2023-02-11T18:01:43;24.70;32.00
12060;DHT22;6091;51.432;6.880;2023-02-11T18:04:13;24.70;32.10
12060;DHT22;6091;51.432;6.880;2023-02-11T18:06:44;24.70;32.00
12060;DHT22;6091;51.432;6.880;2023-02-11T18:09:12;24.70;32.00
12060;DHT22;6091;51.432;6.880;2023-02-11T18:11:40;24.70;32.00
12060;DHT22;6091;51.432;6.880;2023-02-11T18:14:09;24.70;32.00
12060;DHT22;6091;51.432;6.880;2023-02-11T18:16:36;24.70;31.90
12060;DHT22;6091;51.432;6.880;2023-02-11T18:19:05;24.80;32.00
12060;DHT22;6091;51.432;6.880;2023-02-11T18:21:33;24.80;32.60
12060;DHT22;6091;51.432;6.880;2023-02-11T18:24:00;24.80;31.90
12060;DHT22;6091;51.432;6.880;2023-02-11T18:26:32;24.80;31.90
12060;DHT22;6091;51.432;6.880;2023-02-11T18:29:01;24.80;31.90
12060;DHT22;6091;51.432;6.880;2023-02-11T18:31:29;24.70;31.80
12060;DHT22;6091;51.432;6.880;2023-02-11T18:33:57;24.70;31.80
12060;DHT22;6091;51.432;6.880;2023-02-11T18:36:24;24.70;31.80
12060;DHT22;6091;51.432;6.880;2023-02-11T18:38:51;24.80;31.80
12060;DHT22;6091;51.432;6.880;2023-02-11T18:41:20;24.70;32.40
12060;DHT22;6091;51.432;6.880;2023-02-11T18:43:47;24.70;31.80
12060;DHT22;6091;51.432;6.880;2023-02-11T18:46:15;24.70;31.80